Pagina principale
METAR-TAF:

METAR-TAF

Aeroporti :

Aeroporto Internazionale di Anchorage-Ted Stevens

Anchorage, Alaska, Stati Uniti

latitudine: 61-10-28N, longitudine: 149-59-46W, altezza: 44 m

Osservazione

Il bollettino è stato emesso 1 ora e 13 minuti fa, alle 13:53 UTC
Vento 4 kt da sud
Temperature 11°C
Umidità 87%
Pressione 1024 hPa
Visibilità: 16.1 km
Poco nuvoloso ad un'altezza di 9000 ft
Nubi sparse ad un'altezza di 25000 ft

METAR: PANC 191353Z 18004KT 10SM FEW090 SCT250 11/09 A3024 RMK AO2 SLP242 T01060094

Ora: 07:06 (15:06 UTC)

Previsione

Il bollettino è stato emesso 3 ore e 37 minuti fa, alle 11:29 UTC
Previsione valida dal 19 alle 12 UTC al 20 alle 18 UTC
Vento 7 kt da ovest/nord-ovest
Visibilità: 10 km
Nubi sparse ad un'altezza di 20000 ft

TAF: PANC 191129Z 1912/2018 29007KT P6SM SCT200

Osservazioni e previsioni meteorologiche di più di 4000 aeroporti (messaggi METAR e TAF).

Le stazioni disponibili sono rappresentate dai dischi gialli e rossi sulla carta.

Puntare il mouse per vedere il nome della stazione.

Clicca sopra per visualizzare le osservazioni e previsioni meteorologiche.

Per cambiare la mappa : fare clic sui pulsanti verdi con una croce nera per ingrandire, il pulsante verde con un trattino per diminuire, o sulla freccia verde per le mappe adiacenti.


METAR-TAF: